createdAt,value
2019-03-27T00:02:20.808Z,14.60
2019-03-27T00:04:49.080Z,13.83
2019-03-27T00:07:17.381Z,14.27
2019-03-27T00:09:45.632Z,14.67
2019-03-27T00:12:13.933Z,14.03
2019-03-27T00:14:42.189Z,15.10
2019-03-27T00:17:10.501Z,14.77
2019-03-27T00:19:38.759Z,15.27
2019-03-27T00:22:06.986Z,14.47
2019-03-27T00:24:35.245Z,14.27
2019-03-27T00:27:03.545Z,14.17
2019-03-27T00:29:31.776Z,15.13
2019-03-27T00:32:00.045Z,15.27
2019-03-27T00:34:28.277Z,14.90
2019-03-27T00:36:56.596Z,14.67
2019-03-27T00:39:24.892Z,14.43
2019-03-27T00:41:53.156Z,14.63
2019-03-27T00:44:21.454Z,15.87
2019-03-27T00:46:49.723Z,14.63
2019-03-27T00:49:17.949Z,15.17
2019-03-27T00:51:46.204Z,15.80
2019-03-27T00:54:14.440Z,14.07
2019-03-27T00:56:43.084Z,15.03
2019-03-27T00:59:11.268Z,15.47
2019-03-27T01:01:39.602Z,14.20
2019-03-27T01:04:07.899Z,14.77
2019-03-27T01:06:36.233Z,15.03
2019-03-27T01:09:05.018Z,15.23
2019-03-27T01:11:33.351Z,15.07
2019-03-27T01:14:01.580Z,14.70
2019-03-27T01:16:29.808Z,15.77
2019-03-27T01:18:58.069Z,15.13
2019-03-27T01:21:26.298Z,15.10
2019-03-27T01:23:54.557Z,14.60
2019-03-27T01:26:22.788Z,14.57
2019-03-27T01:28:51.048Z,15.00
2019-03-27T01:31:19.280Z,15.07
2019-03-27T01:33:47.544Z,14.47
2019-03-27T01:36:15.854Z,14.93
2019-03-27T01:38:44.122Z,14.37
2019-03-27T01:41:12.348Z,14.83
2019-03-27T01:43:40.603Z,15.00
2019-03-27T01:46:08.833Z,15.20
2019-03-27T01:48:37.102Z,15.10
2019-03-27T01:51:05.396Z,14.57
2019-03-27T01:53:42.802Z,14.83
2019-03-27T01:56:20.367Z,13.90
2019-03-27T01:58:50.850Z,13.77
2019-03-27T02:01:19.109Z,14.30
2019-03-27T02:03:57.346Z,14.57
2019-03-27T02:06:24.170Z,14.07
2019-03-27T02:08:52.481Z,14.93
2019-03-27T02:11:20.885Z,14.50
2019-03-27T02:13:49.130Z,14.63
2019-03-27T02:16:17.401Z,13.70
2019-03-27T02:18:45.780Z,13.83
2019-03-27T02:21:15.122Z,14.23
2019-03-27T02:23:43.369Z,13.93
2019-03-27T02:26:11.630Z,13.13
2019-03-27T02:28:39.946Z,13.93
2019-03-27T02:31:08.253Z,12.90
2019-03-27T02:33:36.592Z,13.00
2019-03-27T02:36:04.917Z,13.33
2019-03-27T02:38:33.184Z,14.20
2019-03-27T02:41:01.411Z,15.10
2019-03-27T02:43:29.678Z,15.63
2019-03-27T02:45:57.910Z,16.53
2019-03-27T02:48:26.251Z,15.30
2019-03-27T02:50:54.405Z,15.77
2019-03-27T02:53:22.672Z,15.63
2019-03-27T02:55:50.972Z,15.80
2019-03-27T02:58:19.279Z,16.30
2019-03-27T03:00:47.605Z,15.67
2019-03-27T03:03:15.830Z,15.93
2019-03-27T03:05:44.167Z,15.00
2019-03-27T03:08:12.423Z,15.93
2019-03-27T03:10:45.075Z,15.87
2019-03-27T03:13:10.560Z,15.10
2019-03-27T03:15:38.864Z,15.37
2019-03-27T03:18:07.202Z,14.17
2019-03-27T03:20:35.430Z,14.67
2019-03-27T03:23:03.775Z,15.37
2019-03-27T03:25:32.079Z,15.20
2019-03-27T03:28:00.415Z,16.30
2019-03-27T03:30:28.720Z,16.43
2019-03-27T03:32:56.986Z,17.17
2019-03-27T03:35:25.224Z,18.27
2019-03-27T03:37:53.497Z,16.37
2019-03-27T03:40:21.801Z,16.20
2019-03-27T03:42:50.062Z,17.43
2019-03-27T03:45:18.457Z,16.30
2019-03-27T03:47:46.785Z,16.50
2019-03-27T03:50:28.510Z,15.43
2019-03-27T03:52:56.861Z,16.73
2019-03-27T03:55:25.450Z,15.97
2019-03-27T03:57:54.768Z,17.60
2019-03-27T04:00:23.169Z,17.47
2019-03-27T04:02:52.792Z,18.57
2019-03-27T04:05:21.709Z,18.20
2019-03-27T04:07:49.962Z,17.83
2019-03-27T04:10:18.191Z,18.30
2019-03-27T04:12:46.461Z,18.10
2019-03-27T04:15:14.798Z,17.70
2019-03-27T04:17:43.016Z,18.23
2019-03-27T04:20:11.350Z,18.37
2019-03-27T04:22:39.578Z,18.13
2019-03-27T04:25:07.884Z,17.80
2019-03-27T04:27:36.307Z,18.23
2019-03-27T04:30:05.833Z,17.77
2019-03-27T04:32:34.074Z,19.47
2019-03-27T04:35:02.326Z,18.57
2019-03-27T04:37:30.533Z,18.50
2019-03-27T04:39:58.869Z,17.50
2019-03-27T04:42:27.103Z,19.97
2019-03-27T04:44:55.362Z,18.67
2019-03-27T04:47:32.063Z,18.33
2019-03-27T04:49:53.556Z,19.27
2019-03-27T04:52:21.784Z,21.17
2019-03-27T04:54:50.047Z,21.93
2019-03-27T04:57:18.277Z,21.83
2019-03-27T04:59:46.545Z,20.53
2019-03-27T05:02:14.776Z,20.73
2019-03-27T05:04:43.168Z,20.90
2019-03-27T05:07:13.725Z,20.43
2019-03-27T05:09:41.296Z,21.00
2019-03-27T05:12:09.637Z,24.13
2019-03-27T05:14:37.863Z,22.60
2019-03-27T05:17:06.211Z,30.30
2019-03-27T05:19:34.446Z,27.83
2019-03-27T05:22:02.757Z,26.43
2019-03-27T05:24:31.027Z,27.57
2019-03-27T05:26:59.331Z,23.20
2019-03-27T05:29:27.597Z,23.27
2019-03-27T05:31:55.816Z,24.80
2019-03-27T05:34:24.589Z,23.60
2019-03-27T05:36:52.892Z,22.83
2019-03-27T05:39:21.120Z,21.63
2019-03-27T05:41:49.517Z,20.63
2019-03-27T05:44:17.843Z,21.70
2019-03-27T05:46:46.181Z,20.87
2019-03-27T05:49:14.494Z,21.57
2019-03-27T05:51:42.755Z,22.07
2019-03-27T05:54:11.065Z,21.40
2019-03-27T05:56:39.312Z,18.33
2019-03-27T05:59:08.279Z,19.47
2019-03-27T06:01:37.626Z,21.27
2019-03-27T06:04:06.160Z,20.93
2019-03-27T06:06:34.571Z,21.30
2019-03-27T06:09:05.680Z,19.80
2019-03-27T06:11:33.981Z,19.17
2019-03-27T06:14:02.400Z,18.10
2019-03-27T06:16:30.786Z,17.67
2019-03-27T06:18:59.096Z,17.23
2019-03-27T06:21:27.387Z,15.27
2019-03-27T06:23:57.795Z,14.60
2019-03-27T06:26:26.187Z,13.53
2019-03-27T06:28:54.526Z,14.57
2019-03-27T06:31:22.919Z,14.93
2019-03-27T06:33:51.261Z,13.47
2019-03-27T06:36:19.642Z,14.60
2019-03-27T06:38:48.061Z,14.03
2019-03-27T06:41:16.291Z,14.17
2019-03-27T06:43:44.622Z,13.63
2019-03-27T06:46:12.957Z,13.63
2019-03-27T06:48:41.232Z,14.10
2019-03-27T06:51:09.701Z,15.47
2019-03-27T06:53:38.060Z,14.83
2019-03-27T06:56:06.511Z,14.70
2019-03-27T06:58:34.898Z,14.27
2019-03-27T07:01:03.498Z,14.37
2019-03-27T07:03:31.893Z,14.63
2019-03-27T07:06:01.083Z,12.90
2019-03-27T07:08:29.879Z,12.77
2019-03-27T07:10:58.156Z,12.97
2019-03-27T07:13:26.327Z,13.33
2019-03-27T07:15:54.793Z,13.20
2019-03-27T07:18:23.639Z,12.97
2019-03-27T07:20:52.035Z,11.57
2019-03-27T07:23:20.379Z,11.27
2019-03-27T07:25:48.890Z,10.53
2019-03-27T07:28:17.121Z,10.10
2019-03-27T07:30:45.549Z,9.53
2019-03-27T07:33:13.896Z,7.83
2019-03-27T07:35:42.149Z,7.40
2019-03-27T07:38:10.381Z,6.10
2019-03-27T07:40:38.721Z,6.37
2019-03-27T07:43:07.008Z,6.37
2019-03-27T07:45:35.442Z,5.47
2019-03-27T07:48:03.745Z,6.87
2019-03-27T07:50:32.097Z,5.90
2019-03-27T07:53:00.422Z,6.60
2019-03-27T07:55:28.647Z,6.07
2019-03-27T07:57:56.907Z,5.77
2019-03-27T08:00:25.306Z,4.53
2019-03-27T08:02:53.629Z,5.00
2019-03-27T08:05:21.927Z,5.10
2019-03-27T08:07:50.249Z,4.10
2019-03-27T08:10:18.483Z,4.20
2019-03-27T08:12:46.777Z,4.40
2019-03-27T08:15:15.109Z,3.87
2019-03-27T08:17:43.484Z,3.77
2019-03-27T08:20:11.898Z,4.57
2019-03-27T08:22:40.193Z,4.63
2019-03-27T08:25:08.585Z,4.83
2019-03-27T08:27:36.837Z,4.80
2019-03-27T08:30:12.240Z,5.27
2019-03-27T08:32:40.566Z,4.80
2019-03-27T08:35:08.969Z,4.50
2019-03-27T08:37:37.397Z,4.37
2019-03-27T08:40:09.722Z,3.90
2019-03-27T08:42:38.947Z,4.20
2019-03-27T08:45:08.057Z,3.93
2019-03-27T08:47:36.369Z,3.50
2019-03-27T08:50:06.106Z,3.50
2019-03-27T08:52:34.321Z,3.50
2019-03-27T08:55:02.895Z,4.37
2019-03-27T08:57:31.113Z,4.37
2019-03-27T08:59:59.329Z,3.20
2019-03-27T09:02:27.585Z,3.67
2019-03-27T09:04:55.889Z,3.73
2019-03-27T09:07:24.220Z,3.30
2019-03-27T09:09:52.523Z,3.30
2019-03-27T09:12:20.784Z,3.80
2019-03-27T09:14:49.018Z,3.47
2019-03-27T09:17:17.281Z,3.10
2019-03-27T09:19:45.618Z,3.03
2019-03-27T09:22:13.910Z,3.23
2019-03-27T09:24:42.173Z,2.90
2019-03-27T09:27:10.469Z,3.37
2019-03-27T09:29:38.796Z,3.10
2019-03-27T09:32:07.109Z,3.57
2019-03-27T09:34:35.369Z,3.30
2019-03-27T09:37:03.680Z,2.70
2019-03-27T09:39:31.961Z,2.87
2019-03-27T09:42:00.225Z,2.67
2019-03-27T09:44:28.526Z,2.73
2019-03-27T09:46:59.554Z,2.47
2019-03-27T09:49:27.858Z,3.27
2019-03-27T09:51:56.123Z,2.60
2019-03-27T09:54:24.404Z,2.97
2019-03-27T09:56:52.709Z,2.43
2019-03-27T09:59:21.056Z,2.70
2019-03-27T10:01:49.353Z,2.20
2019-03-27T10:04:17.569Z,2.33
2019-03-27T10:06:45.901Z,2.30
2019-03-27T10:09:14.189Z,2.27
2019-03-27T10:11:42.513Z,2.10
2019-03-27T10:14:10.854Z,2.07
2019-03-27T10:16:39.177Z,2.30
2019-03-27T10:19:07.474Z,2.17
2019-03-27T10:21:35.742Z,1.67
2019-03-27T10:24:04.142Z,2.00
2019-03-27T10:26:32.397Z,1.67
2019-03-27T10:29:00.690Z,1.83
2019-03-27T10:31:28.950Z,1.80
2019-03-27T10:33:57.235Z,1.97
2019-03-27T10:36:25.522Z,1.80
2019-03-27T10:38:53.851Z,1.90
2019-03-27T10:41:22.064Z,1.63
2019-03-27T10:43:50.405Z,2.10
2019-03-27T10:46:18.634Z,2.00
2019-03-27T10:48:52.902Z,1.90
2019-03-27T10:51:16.762Z,1.80
2019-03-27T10:53:45.013Z,1.73
2019-03-27T10:56:13.328Z,1.90
2019-03-27T10:58:41.581Z,1.57
2019-03-27T11:01:09.801Z,2.13
2019-03-27T11:03:38.087Z,2.00
2019-03-27T11:06:06.469Z,2.17
2019-03-27T11:08:34.639Z,1.87
2019-03-27T11:11:03.009Z,1.90
2019-03-27T11:13:34.295Z,2.20
2019-03-27T11:16:01.273Z,2.10
2019-03-27T11:18:29.575Z,1.87
2019-03-27T11:20:57.897Z,2.10
2019-03-27T11:23:26.128Z,1.80
2019-03-27T11:25:54.374Z,1.80
2019-03-27T11:28:22.665Z,2.20
2019-03-27T11:30:50.994Z,1.90
2019-03-27T11:33:19.277Z,2.10
2019-03-27T11:35:47.516Z,1.90
2019-03-27T11:38:15.848Z,1.93
2019-03-27T11:40:44.175Z,1.97
2019-03-27T11:43:12.449Z,1.80
2019-03-27T11:45:40.780Z,1.90
2019-03-27T11:48:09.109Z,2.00
2019-03-27T11:50:44.564Z,1.90
2019-03-27T11:53:07.297Z,2.50
2019-03-27T11:55:35.545Z,2.03
2019-03-27T11:58:03.913Z,1.90
2019-03-27T12:00:32.241Z,1.80
2019-03-27T12:03:00.568Z,1.80
2019-03-27T12:05:28.896Z,1.90
2019-03-27T12:07:57.212Z,1.50
2019-03-27T12:10:25.550Z,1.60
2019-03-27T12:12:53.753Z,1.73
2019-03-27T12:15:23.536Z,1.83
2019-03-27T12:17:51.769Z,1.83
2019-03-27T12:20:20.021Z,1.77
2019-03-27T12:22:57.643Z,1.93
2019-03-27T12:25:18.222Z,1.57
2019-03-27T12:27:46.453Z,1.70
2019-03-27T12:30:14.889Z,1.60
2019-03-27T12:32:43.114Z,1.63
2019-03-27T12:35:11.449Z,1.80
2019-03-27T12:37:39.763Z,1.90
2019-03-27T12:40:12.012Z,1.70
2019-03-27T12:42:38.047Z,2.10
2019-03-27T12:45:06.642Z,1.70
2019-03-27T12:47:34.977Z,1.90
2019-03-27T12:50:04.588Z,1.90
2019-03-27T12:52:32.915Z,1.60
2019-03-27T12:55:01.222Z,1.80
2019-03-27T12:57:29.556Z,1.63
2019-03-27T12:59:57.861Z,1.77
2019-03-27T13:02:26.188Z,1.70
2019-03-27T13:04:54.485Z,1.80
2019-03-27T13:07:22.810Z,1.50
2019-03-27T13:09:51.113Z,1.80
2019-03-27T13:12:19.450Z,2.13
2019-03-27T13:14:47.754Z,1.80
2019-03-27T13:17:16.014Z,1.80
2019-03-27T13:19:44.386Z,1.80
2019-03-27T13:22:12.678Z,2.13
2019-03-27T13:24:41.006Z,2.10
2019-03-27T13:27:09.302Z,1.80
2019-03-27T13:29:37.560Z,1.80
2019-03-27T13:32:05.849Z,1.80
2019-03-27T13:34:34.171Z,1.70
2019-03-27T13:37:02.495Z,2.43
2019-03-27T13:39:30.725Z,1.80
2019-03-27T13:41:59.052Z,1.87
2019-03-27T13:44:36.986Z,1.97
2019-03-27T13:46:57.353Z,1.90
2019-03-27T13:49:25.814Z,1.70
2019-03-27T13:51:54.041Z,1.80
2019-03-27T13:54:22.337Z,1.60
2019-03-27T13:56:50.591Z,1.80
2019-03-27T13:59:18.829Z,2.20
2019-03-27T14:01:47.074Z,1.93
2019-03-27T14:04:15.375Z,1.93
2019-03-27T14:06:44.842Z,1.80
2019-03-27T14:09:13.294Z,2.00
2019-03-27T14:11:41.915Z,1.83
2019-03-27T14:14:11.503Z,2.20
2019-03-27T14:16:40.154Z,2.00
2019-03-27T14:19:08.481Z,2.27
2019-03-27T14:21:36.777Z,2.20
2019-03-27T14:24:05.174Z,2.00
2019-03-27T14:26:44.456Z,1.90
2019-03-27T14:29:03.467Z,2.30
2019-03-27T14:31:31.777Z,1.77
2019-03-27T14:34:00.034Z,2.10
2019-03-27T14:36:28.340Z,2.00
2019-03-27T14:38:56.751Z,1.93
2019-03-27T14:41:25.169Z,2.20
2019-03-27T14:43:53.567Z,1.80
2019-03-27T14:46:21.963Z,1.90
2019-03-27T14:48:50.263Z,1.80
2019-03-27T14:51:18.596Z,1.73
2019-03-27T14:53:46.814Z,2.27
2019-03-27T14:56:15.070Z,2.27
2019-03-27T14:58:43.361Z,2.00
2019-03-27T15:01:11.685Z,1.93
2019-03-27T15:03:39.912Z,1.80
2019-03-27T15:06:08.161Z,1.77
2019-03-27T15:08:36.449Z,2.27
2019-03-27T15:11:20.742Z,2.10
2019-03-27T15:13:49.495Z,2.47
2019-03-27T15:16:23.071Z,1.93
2019-03-27T15:18:52.708Z,2.10
2019-03-27T15:21:23.132Z,2.40
2019-03-27T15:23:52.402Z,2.17
2019-03-27T15:26:20.945Z,2.40
2019-03-27T15:28:50.883Z,2.43
2019-03-27T15:31:20.950Z,2.50
2019-03-27T15:33:58.209Z,18.53
2019-03-27T15:36:26.627Z,2.87
2019-03-27T15:38:54.989Z,2.13
2019-03-27T15:41:27.150Z,2.00
2019-03-27T15:43:55.777Z,2.27
2019-03-27T15:46:24.628Z,2.17
2019-03-27T15:48:53.560Z,2.33
2019-03-27T15:51:21.965Z,3.77
2019-03-27T15:53:50.738Z,2.70
2019-03-27T15:56:19.244Z,2.37
2019-03-27T15:58:48.377Z,2.40
2019-03-27T16:01:16.736Z,2.30
2019-03-27T16:03:47.207Z,2.30
2019-03-27T16:06:16.400Z,2.20
2019-03-27T16:08:44.783Z,1.90
2019-03-27T16:11:13.143Z,19.57
2019-03-27T16:13:41.473Z,9.40
2019-03-27T16:16:09.892Z,2.60
2019-03-27T16:18:38.274Z,2.40
2019-03-27T16:21:06.633Z,2.53
2019-03-27T16:23:34.979Z,2.50
2019-03-27T16:26:03.357Z,2.50
2019-03-27T16:28:31.773Z,2.73
2019-03-27T16:31:00.073Z,2.70
2019-03-27T16:33:28.487Z,2.97
2019-03-27T16:35:56.989Z,2.70
2019-03-27T16:38:25.394Z,2.50
2019-03-27T16:40:53.706Z,2.60
2019-03-27T16:43:22.135Z,2.70
2019-03-27T16:45:50.451Z,2.60
2019-03-27T16:48:18.830Z,2.83
2019-03-27T16:50:47.235Z,3.30
2019-03-27T16:53:15.628Z,3.23
2019-03-27T16:55:44.138Z,3.43
2019-03-27T16:58:12.517Z,3.10
2019-03-27T17:00:40.869Z,3.17
2019-03-27T17:03:09.168Z,4.30
2019-03-27T17:05:37.518Z,3.97
2019-03-27T17:08:05.924Z,4.17
2019-03-27T17:10:34.427Z,2.90
2019-03-27T17:13:03.153Z,2.80
2019-03-27T17:15:31.457Z,3.10
2019-03-27T17:17:59.800Z,2.97
2019-03-27T17:20:28.112Z,3.17
2019-03-27T17:22:56.444Z,2.67
2019-03-27T17:25:24.757Z,3.00
2019-03-27T17:27:55.714Z,2.87
2019-03-27T17:30:23.416Z,2.63
2019-03-27T17:32:51.753Z,4.00
2019-03-27T17:35:19.976Z,3.57
2019-03-27T17:37:48.237Z,3.67
2019-03-27T17:40:16.572Z,3.30
2019-03-27T17:42:44.845Z,3.10
2019-03-27T17:45:13.148Z,2.90
2019-03-27T17:47:41.543Z,3.10
2019-03-27T17:50:09.837Z,2.80
2019-03-27T17:52:38.559Z,2.60
2019-03-27T17:55:07.321Z,3.00
2019-03-27T17:57:35.621Z,3.07
2019-03-27T18:00:07.880Z,2.90
2019-03-27T18:02:36.268Z,3.23
2019-03-27T18:05:06.100Z,3.40
2019-03-27T18:07:34.476Z,3.77
2019-03-27T18:10:23.615Z,3.70
2019-03-27T18:12:51.987Z,3.03
2019-03-27T18:15:20.407Z,2.87
2019-03-27T18:17:48.823Z,2.80
2019-03-27T18:20:17.138Z,2.87
2019-03-27T18:22:45.442Z,3.43
2019-03-27T18:25:13.769Z,3.13
2019-03-27T18:27:42.089Z,4.87
2019-03-27T18:30:10.393Z,8.13
2019-03-27T18:32:38.801Z,9.13
2019-03-27T18:35:07.296Z,5.97
2019-03-27T18:37:35.642Z,5.77
2019-03-27T18:40:05.742Z,6.37
2019-03-27T18:42:35.710Z,5.80
2019-03-27T18:45:05.314Z,7.27
2019-03-27T18:47:33.731Z,6.50
2019-03-27T18:50:02.044Z,5.73
2019-03-27T18:52:30.470Z,6.30
2019-03-27T18:54:58.831Z,5.43
2019-03-27T18:57:27.151Z,5.23
2019-03-27T18:59:55.529Z,4.33
2019-03-27T19:02:23.893Z,4.97
2019-03-27T19:04:52.303Z,4.07
2019-03-27T19:07:20.784Z,3.50
2019-03-27T19:09:49.138Z,3.30
2019-03-27T19:12:17.537Z,3.60
2019-03-27T19:14:45.885Z,3.27
2019-03-27T19:17:14.201Z,3.50
2019-03-27T19:19:43.806Z,3.30
2019-03-27T19:22:12.176Z,3.13
2019-03-27T19:24:40.522Z,3.50
2019-03-27T19:27:08.929Z,4.93
2019-03-27T19:32:24.506Z,6.60
2019-03-27T19:34:52.817Z,6.70
2019-03-27T19:37:21.230Z,6.53
2019-03-27T19:39:49.605Z,5.77
2019-03-27T19:42:18.040Z,5.57
2019-03-27T19:44:46.413Z,5.23
2019-03-27T19:47:14.821Z,5.10
2019-03-27T19:49:43.168Z,5.40
2019-03-27T19:52:11.506Z,5.73
2019-03-27T19:54:39.928Z,4.90
2019-03-27T19:57:08.343Z,4.73
2019-03-27T19:59:36.694Z,4.50
2019-03-27T20:02:05.173Z,4.57
2019-03-27T20:04:33.546Z,4.30
2019-03-27T20:07:01.818Z,3.90
2019-03-27T20:09:32.428Z,4.20
2019-03-27T20:12:00.760Z,3.77
2019-03-27T20:14:29.026Z,4.00
2019-03-27T20:16:57.321Z,4.03
2019-03-27T20:19:25.682Z,5.50
2019-03-27T20:21:53.959Z,5.93
2019-03-27T20:24:22.293Z,5.07
2019-03-27T20:26:50.592Z,5.00
2019-03-27T20:29:18.888Z,28.83
2019-03-27T20:31:47.321Z,25.00
2019-03-27T20:34:15.597Z,13.77
2019-03-27T20:36:43.913Z,10.00
2019-03-27T20:39:12.251Z,7.17
2019-03-27T20:41:40.612Z,6.37
2019-03-27T20:44:09.044Z,7.23
2019-03-27T20:46:37.437Z,6.10
2019-03-27T20:49:06.905Z,6.90
2019-03-27T20:51:35.326Z,6.60
2019-03-27T20:54:03.723Z,6.43
2019-03-27T20:56:32.131Z,7.47
2019-03-27T20:59:01.487Z,8.10
2019-03-27T21:01:30.171Z,6.83
2019-03-27T21:03:58.719Z,7.17
2019-03-27T21:06:27.203Z,7.67
2019-03-27T21:08:56.230Z,8.20
2019-03-27T21:11:24.515Z,12.60
2019-03-27T21:13:52.940Z,8.90
2019-03-27T21:16:21.310Z,8.30
2019-03-27T21:18:49.646Z,7.60
2019-03-27T21:21:17.885Z,9.37
2019-03-27T21:23:47.015Z,9.97
2019-03-27T21:26:15.354Z,11.73
2019-03-27T21:28:43.769Z,11.17
2019-03-27T21:31:12.168Z,11.00
2019-03-27T21:33:40.455Z,10.20
2019-03-27T21:36:08.886Z,11.00
2019-03-27T21:38:37.298Z,10.83
2019-03-27T21:41:06.146Z,10.87
2019-03-27T21:43:34.457Z,9.77
2019-03-27T21:46:02.717Z,12.63
2019-03-27T21:48:30.946Z,9.73
2019-03-27T21:50:59.289Z,9.03
2019-03-27T21:53:27.668Z,10.70
2019-03-27T21:55:56.081Z,9.83
2019-03-27T21:58:24.407Z,11.57
2019-03-27T22:00:52.825Z,10.67
2019-03-27T22:03:21.121Z,10.90
2019-03-27T22:05:49.369Z,11.90
2019-03-27T22:08:17.989Z,10.77
2019-03-27T22:10:48.259Z,10.97
2019-03-27T22:13:16.512Z,10.10
2019-03-27T22:15:44.792Z,9.33
2019-03-27T22:18:13.161Z,9.80
2019-03-27T22:20:41.556Z,10.03
2019-03-27T22:23:09.814Z,9.70
2019-03-27T22:25:38.156Z,9.03
2019-03-27T22:28:06.484Z,9.57
2019-03-27T22:30:34.716Z,8.97
2019-03-27T22:33:03.045Z,9.27
2019-03-27T22:35:31.300Z,9.30
2019-03-27T22:37:59.596Z,9.13
2019-03-27T22:40:27.942Z,9.77
2019-03-27T22:42:57.016Z,9.87
2019-03-27T22:45:25.492Z,9.80
2019-03-27T22:47:53.741Z,10.13
2019-03-27T22:50:22.263Z,9.10
2019-03-27T22:52:50.569Z,8.87
2019-03-27T22:55:18.907Z,10.00
2019-03-27T22:57:47.170Z,9.13
2019-03-27T23:00:16.013Z,9.23
2019-03-27T23:02:44.308Z,8.20
2019-03-27T23:05:12.646Z,8.40
2019-03-27T23:07:40.928Z,8.10
2019-03-27T23:10:09.323Z,7.10
2019-03-27T23:12:37.664Z,8.60
2019-03-27T23:15:07.432Z,7.93
2019-03-27T23:17:35.689Z,7.20
2019-03-27T23:20:05.678Z,7.63
2019-03-27T23:22:34.037Z,7.57
2019-03-27T23:25:02.341Z,6.93
2019-03-27T23:27:30.745Z,8.30
2019-03-27T23:29:59.061Z,7.53
2019-03-27T23:32:27.426Z,6.00
2019-03-27T23:34:55.735Z,6.20
2019-03-27T23:37:24.069Z,6.50
2019-03-27T23:39:52.366Z,6.00
2019-03-27T23:42:20.670Z,6.73
2019-03-27T23:44:49.090Z,6.70
2019-03-27T23:47:17.471Z,6.07
2019-03-27T23:49:45.978Z,6.33
2019-03-27T23:52:14.275Z,6.07
2019-03-27T23:54:42.536Z,6.03
2019-03-27T23:57:10.915Z,6.27
2019-03-27T23:59:39.255Z,6.63
